Time;durP1;ratioP1;P1;durP2;ratioP2;P2;SDS_P1;SDS_P2;PMS_P1;PMS_P2;Temp;Humidity;BMP_temperature;BMP_pressure;BME280_temperature;BME280_humidity;BME280_pressure;Samples;Min_cycle;Max_cycle;Signal;HPM_P1;HPM_P2
2022/05/25 00:02:01;;;;;;;5.05;3.00;;;;;;;12.64;100.00;90863.94;5031612;28;20033;-62
2022/05/25 00:04:28;;;;;;;6.25;3.90;;;;;;;12.56;100.00;90857.53;5031309;28;20021;-62
2022/05/25 00:06:53;;;;;;;10.85;4.20;;;;;;;12.60;100.00;90861.13;5031442;28;20065;-62
2022/05/25 00:09:19;;;;;;;5.88;3.85;;;;;;;12.68;100.00;90862.19;5031317;28;20450;-62
2022/05/25 00:11:45;;;;;;;4.55;3.40;;;;;;;12.64;100.00;90846.06;5031224;28;20047;-62
2022/05/25 00:14:11;;;;;;;5.57;3.65;;;;;;;12.67;100.00;90856.06;5031331;28;20112;-61
2022/05/25 00:16:37;;;;;;;3.90;2.85;;;;;;;12.72;100.00;90860.44;5031286;28;20065;-62
2022/05/25 00:21:46;;;;;;;7.40;3.13;;;;;;;12.62;100.00;90853.56;5031116;28;20040;-62
2022/05/25 00:24:11;;;;;;;3.42;2.97;;;;;;;12.64;100.00;90864.72;5031063;28;20026;-61
2022/05/25 00:26:37;;;;;;;5.60;3.15;;;;;;;12.63;100.00;90865.06;5031009;28;20474;-62
2022/05/25 00:29:03;;;;;;;4.85;3.22;;;;;;;12.56;100.00;90862.88;5031226;28;20025;-62
2022/05/25 00:31:30;;;;;;;4.20;3.30;;;;;;;12.45;100.00;90867.00;5030828;28;20060;-62
2022/05/25 00:33:57;;;;;;;8.90;3.55;;;;;;;12.32;100.00;90855.47;5031146;28;20083;-62
2022/05/25 00:36:22;;;;;;;5.28;3.78;;;;;;;12.23;100.00;90858.16;5030930;28;20039;-62
2022/05/25 00:38:48;;;;;;;6.50;4.10;;;;;;;12.18;100.00;90852.22;5030917;28;20515;-62
2022/05/25 00:41:13;;;;;;;5.97;4.47;;;;;;;12.28;100.00;90860.63;5030918;28;20499;-62
2022/05/25 00:43:39;;;;;;;4.93;4.18;;;;;;;12.21;100.00;90860.34;5030991;28;20575;-62
2022/05/25 00:46:08;;;;;;;10.15;4.82;;;;;;;12.18;100.00;90858.34;5030950;28;20033;-62
2022/05/25 00:49:04;;;;;;;6.47;4.57;;;;;;;12.05;100.00;90848.66;5034407;28;20103;-61
2022/05/25 00:51:44;;;;;;;5.20;4.15;;;;;;;12.09;100.00;90851.47;5033769;28;20094;-62
2022/05/25 00:54:15;;;;;;;5.05;3.85;;;;;;;12.09;100.00;90865.56;5034855;28;20040;-62
2022/05/25 00:56:45;;;;;;;5.47;3.10;;;;;;;12.01;100.00;90862.94;5034813;28;20518;-62
2022/05/25 00:59:14;;;;;;;4.95;3.10;;;;;;;11.99;100.00;90863.25;5035010;28;20029;-62
2022/05/25 01:01:40;;;;;;;6.68;3.45;;;;;;;11.99;100.00;90856.03;5034871;28;20033;-62
2022/05/25 01:04:06;;;;;;;4.55;2.75;;;;;;;11.95;100.00;90859.66;5034658;28;20025;-62
2022/05/25 01:06:58;;;;;;;7.63;2.58;;;;;;;11.99;100.00;90860.56;5034748;28;20037;-61
2022/05/25 01:09:42;;;;;;;4.47;2.75;;;;;;;12.13;100.00;90860.38;5034622;28;20029;-62
2022/05/25 01:12:28;;;;;;;6.57;4.60;;;;;;;12.15;100.00;90860.84;5034563;28;20525;-62
2022/05/25 01:15:31;;;;;;;5.05;3.40;;;;;;;12.30;100.00;90861.09;5034454;28;20072;-61
2022/05/25 01:18:06;;;;;;;7.43;3.00;;;;;;;12.32;100.00;90860.00;5034520;28;20261;-61
2022/05/25 01:21:16;;;;;;;5.57;2.53;;;;;;;12.29;100.00;90853.41;5034533;28;20029;-62
2022/05/25 01:23:51;;;;;;;2.47;2.28;;;;;;;12.08;100.00;90853.34;5023704;28;20049;-62
2022/05/25 01:26:30;;;;;;;2.85;2.50;;;;;;;11.98;100.00;90854.47;5034280;28;20053;-62
2022/05/25 01:29:01;;;;;;;3.75;2.58;;;;;;;11.91;100.00;90859.50;5034747;28;20567;-62
2022/05/25 01:31:41;;;;;;;5.65;3.30;;;;;;;11.85;100.00;90860.00;5034108;28;20029;-62
2022/05/25 01:34:19;;;;;;;3.22;2.38;;;;;;;11.82;100.00;90852.63;5034206;28;20048;-62
2022/05/25 01:36:54;;;;;;;4.05;3.00;;;;;;;11.73;100.00;90860.63;5034151;28;20041;-62
2022/05/25 01:39:25;;;;;;;3.85;2.97;;;;;;;11.68;100.00;90861.56;5034116;28;20021;-62
2022/05/25 01:42:00;;;;;;;3.40;2.90;;;;;;;11.72;100.00;90860.94;5033867;28;20040;-61
2022/05/25 01:44:31;;;;;;;2.20;2.00;;;;;;;11.76;100.00;90859.19;5033953;28;20021;-61
2022/05/25 01:47:10;;;;;;;3.17;2.10;;;;;;;11.87;100.00;90855.91;5034007;28;20025;-61
2022/05/25 01:49:45;;;;;;;3.03;2.28;;;;;;;11.89;100.00;90860.94;5034154;28;20044;-61
2022/05/25 01:52:16;;;;;;;3.08;2.30;;;;;;;11.61;100.00;90855.94;5033789;28;20076;-61
2022/05/25 01:54:50;;;;;;;3.00;2.15;;;;;;;11.64;100.00;90860.63;5033755;28;20021;-61
2022/05/25 01:57:18;;;;;;;3.25;2.50;;;;;;;11.57;100.00;90857.66;5033947;28;20033;-61
2022/05/25 01:59:44;;;;;;;3.55;2.72;;;;;;;11.50;100.00;90854.69;5033038;28;20083;-61
2022/05/25 02:04:57;;;;;;;2.65;2.13;;;;;;;11.49;100.00;90861.09;5033534;28;20086;-61
2022/05/25 02:07:59;;;;;;;2.20;1.80;;;;;;;11.52;100.00;90863.16;5033380;28;20112;-61
2022/05/25 02:10:54;;;;;;;2.13;1.88;;;;;;;11.27;100.00;90853.31;5033496;28;20025;-61
2022/05/25 02:13:47;;;;;;;2.53;2.00;;;;;;;11.26;100.00;90855.19;5033411;28;20029;-62
2022/05/25 02:16:44;;;;;;;3.67;2.17;;;;;;;11.19;100.00;90862.84;5033338;28;20033;-62
2022/05/25 02:19:28;;;;;;;6.03;2.42;;;;;;;11.16;100.00;90865.34;5033370;28;20029;-62
2022/05/25 02:22:04;;;;;;;6.88;3.60;;;;;;;11.17;100.00;90866.91;5033215;28;20021;-62
2022/05/25 02:24:37;;;;;;;3.05;2.45;;;;;;;11.15;100.00;90885.09;5033196;28;20041;-62
2022/05/25 02:27:24;;;;;;;5.03;2.20;;;;;;;11.15;100.00;90879.75;5032998;28;20069;-62
2022/05/25 02:29:53;;;;;;;3.63;1.77;;;;;;;11.15;100.00;90879.75;5033184;28;20033;-62
2022/05/25 02:32:29;;;;;;;2.60;2.33;;;;;;;11.23;100.00;90887.00;5033264;28;20025;-62
2022/05/25 02:34:57;;;;;;;4.60;2.38;;;;;;;11.20;100.00;90880.38;5033056;28;20514;-61
2022/05/25 02:37:26;;;;;;;8.07;2.35;;;;;;;11.24;100.00;90893.88;5032974;28;20033;-61
2022/05/25 02:39:54;;;;;;;6.15;3.15;;;;;;;11.20;100.00;90892.91;5033172;28;20191;-61
2022/05/25 02:42:20;;;;;;;6.75;2.75;;;;;;;11.14;100.00;90894.16;5032985;28;20034;-61
2022/05/25 02:44:45;;;;;;;4.85;3.20;;;;;;;11.06;100.00;90899.19;5032606;28;20410;-61
2022/05/25 02:47:11;;;;;;;11.88;5.00;;;;;;;11.01;100.00;90901.97;5032836;28;20025;-61
2022/05/25 02:49:37;;;;;;;7.72;4.53;;;;;;;11.00;100.00;90900.41;5032740;28;20400;-61
2022/05/25 02:52:05;;;;;;;9.75;4.93;;;;;;;11.04;100.00;90911.22;5032621;28;20036;-61
2022/05/25 02:54:30;;;;;;;7.72;3.83;;;;;;;10.99;100.00;90912.16;5032683;28;20037;-61
2022/05/25 02:56:55;;;;;;;6.32;3.55;;;;;;;11.07;100.00;90913.28;5032647;28;20026;-61
2022/05/25 02:59:21;;;;;;;7.28;3.72;;;;;;;11.14;100.00;90910.94;5032640;28;20411;-61
2022/05/25 03:01:46;;;;;;;5.15;3.63;;;;;;;11.18;100.00;90917.19;5032488;28;20092;-61
2022/05/25 03:04:12;;;;;;;4.07;3.15;;;;;;;11.17;100.00;90920.16;5032421;28;20032;-62
2022/05/25 03:06:37;;;;;;;2.75;1.95;;;;;;;11.13;100.00;90919.22;5032464;28;20036;-62
2022/05/25 03:09:03;;;;;;;2.55;2.05;;;;;;;11.08;100.00;90907.66;5032417;28;20496;-62
2022/05/25 03:11:28;;;;;;;2.70;2.47;;;;;;;11.22;100.00;90923.47;5031252;28;20087;-62
2022/05/25 03:13:54;;;;;;;3.13;1.92;;;;;;;11.23;100.00;90929.59;5032309;28;20079;-62
2022/05/25 03:16:20;;;;;;;4.80;2.30;;;;;;;11.26;100.00;90931.63;5032242;28;20033;-62
2022/05/25 03:18:50;;;;;;;5.78;3.03;;;;;;;11.24;100.00;90929.28;5032218;28;20100;-61
2022/05/25 03:21:18;;;;;;;5.75;2.17;;;;;;;11.22;100.00;90930.69;5032078;28;20113;-60
2022/05/25 03:23:43;;;;;;;2.67;1.98;;;;;;;11.29;100.00;90938.97;5032338;28;20454;-61
2022/05/25 03:26:09;;;;;;;1.88;1.75;;;;;;;11.31;100.00;90936.78;5031611;28;20555;-61
2022/05/25 03:28:35;;;;;;;2.40;2.10;;;;;;;11.26;100.00;90944.94;5031939;28;20034;-61
2022/05/25 03:31:00;;;;;;;7.43;2.28;;;;;;;11.32;100.00;90949.78;5032170;28;20037;-61
2022/05/25 03:33:25;;;;;;;4.35;2.63;;;;;;;11.30;100.00;90945.88;5031899;28;20492;-62
2022/05/25 03:35:51;;;;;;;5.35;3.25;;;;;;;11.38;100.00;90953.09;5031913;28;20029;-62
2022/05/25 03:38:16;;;;;;;22.42;10.23;;;;;;;11.46;100.00;90959.53;5032099;28;20057;-61
2022/05/25 03:40:42;;;;;;;5.60;2.58;;;;;;;11.55;100.00;90963.78;5013964;28;20033;-62
2022/05/25 03:43:14;;;;;;;4.65;2.13;;;;;;;11.67;100.00;90960.47;5031681;28;20568;-61
2022/05/25 03:45:39;;;;;;;4.35;2.20;;;;;;;11.90;100.00;90959.25;5031597;28;20037;-61
2022/05/25 03:48:07;;;;;;;6.90;2.60;;;;;;;12.04;100.00;90961.75;5031605;28;20094;-61
2022/05/25 03:50:38;;;;;;;10.00;4.65;;;;;;;12.22;100.00;90957.16;5031750;28;20030;-61
2022/05/25 03:53:04;;;;;;;2.63;2.13;;;;;;;12.35;100.00;90964.19;5031819;28;20162;-61
2022/05/25 03:55:30;;;;;;;4.82;2.30;;;;;;;12.37;100.00;90955.88;5031803;28;20033;-61
2022/05/25 03:57:56;;;;;;;3.53;2.25;;;;;;;12.47;100.00;90955.53;5031508;28;20030;-63
2022/05/25 04:00:21;;;;;;;3.25;2.47;;;;;;;12.58;100.00;90968.19;5031433;28;20487;-62
2022/05/25 04:02:47;;;;;;;4.72;3.22;;;;;;;12.83;100.00;90976.44;5031420;28;20018;-62
2022/05/25 04:05:12;;;;;;;5.65;3.80;;;;;;;12.85;100.00;90958.19;5031330;28;20036;-62
2022/05/25 04:07:45;;;;;;;39.53;21.83;;;;;;;13.05;100.00;90973.50;5031192;28;20108;-62
2022/05/25 04:10:15;;;;;;;37.72;20.35;;;;;;;13.00;100.00;90970.22;5031367;28;20514;-63
2022/05/25 04:12:43;;;;;;;5.18;3.00;;;;;;;13.13;100.00;90961.22;5030735;28;20056;-63
2022/05/25 04:15:12;;;;;;;9.82;5.82;;;;;;;13.38;100.00;90968.31;5030959;28;20037;-62
2022/05/25 04:17:38;;;;;;;3.72;2.25;;;;;;;13.58;100.00;90966.78;5031153;28;20534;-63
2022/05/25 04:20:05;;;;;;;2.72;2.40;;;;;;;13.65;100.00;90967.03;5031185;28;20052;-63
2022/05/25 04:22:32;;;;;;;2.65;1.95;;;;;;;13.78;100.00;90959.88;5030184;28;20036;-62
2022/05/25 04:24:59;;;;;;;10.57;2.75;;;;;;;13.93;100.00;90978.00;5031077;28;20067;-62
2022/05/25 04:27:25;;;;;;;6.25;2.88;;;;;;;14.11;100.00;90973.28;5030773;28;20050;-62
2022/05/25 04:29:51;;;;;;;5.32;2.17;;;;;;;14.25;100.00;90975.69;5030380;28;20519;-63
2022/05/25 04:32:16;;;;;;;3.78;2.38;;;;;;;14.42;100.00;90975.50;5031062;28;20022;-63
2022/05/25 04:34:42;;;;;;;2.90;2.05;;;;;;;14.55;100.00;90971.00;5030444;28;20446;-63
2022/05/25 04:39:51;;;;;;;2.72;2.10;;;;;;;14.60;100.00;90974.25;5030820;28;20036;-63
2022/05/25 04:42:17;;;;;;;11.93;3.60;;;;;;;14.73;100.00;90968.91;5030982;28;20029;-63
2022/05/25 04:44:42;;;;;;;4.22;2.55;;;;;;;14.84;100.00;90978.88;5030957;28;20092;-62
2022/05/25 04:47:08;;;;;;;3.38;1.98;;;;;;;14.88;100.00;90979.00;5030999;28;20045;-63
2022/05/25 04:49:35;;;;;;;4.70;2.50;;;;;;;15.06;100.00;90972.31;5030980;28;20025;-62
2022/05/25 04:52:00;;;;;;;3.80;2.53;;;;;;;15.41;100.00;90979.91;5030863;28;20512;-62
2022/05/25 04:54:26;;;;;;;6.65;2.40;;;;;;;15.69;100.00;90980.78;5030963;28;20113;-62
2022/05/25 04:59:35;;;;;;;8.20;3.50;;;;;;;16.06;100.00;90991.44;5030386;28;20427;-62
2022/05/25 05:02:01;;;;;;;14.02;7.47;;;;;;;16.31;100.00;90995.63;5030307;28;20038;-62
2022/05/25 05:04:26;;;;;;;3.90;2.55;;;;;;;16.21;100.00;90990.72;5030654;28;20021;-63
2022/05/25 05:06:52;;;;;;;8.52;5.38;;;;;;;16.08;100.00;90989.97;5030974;28;20030;-62
2022/05/25 05:09:18;;;;;;;8.40;4.78;;;;;;;16.48;100.00;90989.16;5030345;28;20029;-63
2022/05/25 05:11:45;;;;;;;3.85;2.58;;;;;;;16.88;99.46;91005.22;5030520;28;20056;-63
2022/05/25 05:14:10;;;;;;;5.18;2.30;;;;;;;17.17;93.99;90997.88;5030478;28;20033;-63
2022/05/25 05:16:36;;;;;;;2.97;2.35;;;;;;;17.29;94.30;90995.09;5030450;28;20116;-63
2022/05/25 05:19:01;;;;;;;5.57;2.30;;;;;;;17.53;93.94;90999.53;5030328;28;20038;-63
2022/05/25 05:21:27;;;;;;;3.65;2.28;;;;;;;17.78;92.19;91000.13;5030078;28;20030;-63
2022/05/25 05:23:52;;;;;;;7.40;2.70;;;;;;;17.98;90.88;90998.25;5030324;28;20443;-63
2022/05/25 05:26:18;;;;;;;8.30;2.70;;;;;;;17.94;91.00;90998.16;5030508;28;20439;-64
2022/05/25 05:28:45;;;;;;;4.65;2.85;;;;;;;18.12;90.98;90993.16;5030415;28;20018;-63
2022/05/25 05:31:12;;;;;;;4.13;2.90;;;;;;;18.76;91.16;90997.94;5030274;28;20037;-63
2022/05/25 05:33:38;;;;;;;7.93;3.47;;;;;;;21.22;81.30;90999.63;5030637;28;20112;-63
2022/05/25 05:36:21;;;;;;;7.95;3.78;;;;;;;23.64;67.22;91007.66;5033934;28;20104;-63
2022/05/25 05:38:52;;;;;;;11.55;3.00;;;;;;;25.31;60.96;91008.13;5034316;28;20104;-64
2022/05/25 05:41:23;;;;;;;5.97;3.35;;;;;;;26.73;54.93;90998.13;5033195;28;20045;-64
2022/05/25 05:43:49;;;;;;;6.30;3.67;;;;;;;29.22;49.44;90999.88;5033325;28;20818;-64
2022/05/25 05:46:15;;;;;;;9.30;3.03;;;;;;;28.79;47.68;91005.34;5033844;28;20037;-63
2022/05/25 05:48:42;;;;;;;5.80;3.65;;;;;;;31.05;44.15;91005.44;5033768;28;20104;-63
2022/05/25 05:51:09;;;;;;;5.30;3.33;;;;;;;30.73;43.37;90998.06;5033787;28;20025;-63
2022/05/25 05:53:34;;;;;;;6.70;3.08;;;;;;;32.64;40.08;90999.19;5033807;28;20026;-63
2022/05/25 05:56:00;;;;;;;8.15;3.20;;;;;;;31.99;41.46;90993.38;5033833;28;20510;-63
2022/05/25 05:58:26;;;;;;;7.43;3.90;;;;;;;32.90;40.05;90999.94;5033998;28;20462;-64
2022/05/25 06:00:51;;;;;;;5.30;3.25;;;;;;;32.89;39.33;91001.16;5033646;28;20546;-65
2022/05/25 06:03:17;;;;;;;6.18;3.35;;;;;;;32.91;38.20;91004.22;5033692;28;20442;-64
2022/05/25 06:05:46;;;;;;;9.43;3.72;;;;;;;33.63;37.86;91005.28;5033415;28;20554;-64
2022/05/25 06:08:18;;;;;;;5.18;3.25;;;;;;;33.08;39.31;91001.31;5016292;28;20029;-65
2022/05/25 06:10:45;;;;;;;5.97;2.97;;;;;;;31.94;40.61;91000.22;5033506;28;20022;-64
2022/05/25 06:13:10;;;;;;;9.65;3.50;;;;;;;31.30;41.02;91007.56;5033485;28;20560;-64
2022/05/25 06:21:06;;;;;;;3.80;2.97;;;;;;;33.10;38.21;91018.16;5033552;28;20035;-66
2022/05/25 06:23:31;;;;;;;3.65;3.08;;;;;;;33.09;37.09;91022.13;5033335;28;20033;-66
2022/05/25 06:25:57;;;;;;;5.65;3.08;;;;;;;31.98;38.47;91016.63;5033020;28;20053;-66
2022/05/25 06:28:22;;;;;;;5.53;3.22;;;;;;;33.03;37.44;91016.44;5015185;28;20125;-66
2022/05/25 06:30:48;;;;;;;5.47;2.78;;;;;;;34.33;36.19;91014.06;5015216;28;20068;-66
2022/05/25 06:33:13;;;;;;;6.93;3.72;;;;;;;36.18;34.00;91015.31;5033068;28;20029;-65
2022/05/25 06:35:39;;;;;;;7.03;3.90;;;;;;;35.98;32.82;91010.31;5033030;28;20021;-67
2022/05/25 06:38:04;;;;;;;8.05;3.97;;;;;;;35.83;33.30;91016.94;5033025;28;20545;-64
2022/05/25 06:40:30;;;;;;;8.82;3.22;;;;;;;36.43;33.33;91016.94;5032924;28;20045;-65
2022/05/25 06:42:56;;;;;;;9.07;4.38;;;;;;;38.02;31.45;91020.50;5033033;28;20388;-64
2022/05/25 06:45:22;;;;;;;8.25;4.15;;;;;;;36.39;33.38;90998.97;5032622;28;20048;-65
2022/05/25 06:47:47;;;;;;;10.68;3.95;;;;;;;36.86;32.43;91026.78;5032872;28;20026;-65
2022/05/25 06:50:13;;;;;;;5.93;3.55;;;;;;;36.83;32.54;91018.63;5032774;28;20032;-64
2022/05/25 06:52:39;;;;;;;6.75;3.35;;;;;;;37.81;31.38;91025.19;5032774;28;20513;-64
2022/05/25 06:55:05;;;;;;;9.90;3.63;;;;;;;39.16;30.13;91028.19;5032647;28;20037;-64
2022/05/25 06:57:31;;;;;;;5.75;3.95;;;;;;;38.66;29.87;91030.97;5032570;28;20093;-64
2022/05/25 06:59:57;;;;;;;6.88;3.60;;;;;;;39.72;29.73;91026.84;5032621;28;20109;-64
2022/05/25 07:02:24;;;;;;;4.03;3.28;;;;;;;41.92;27.98;91024.44;5032501;28;20021;-64
2022/05/25 07:04:49;;;;;;;18.10;4.00;;;;;;;39.22;30.45;91020.66;5032466;28;20547;-64
2022/05/25 07:07:15;;;;;;;5.70;3.70;;;;;;;39.00;31.43;91021.09;5032505;28;20104;-64
2022/05/25 07:09:40;;;;;;;9.27;4.10;;;;;;;37.78;32.49;91031.72;5032414;28;20057;-64
2022/05/25 07:12:07;;;;;;;7.82;3.80;;;;;;;38.53;30.96;91024.94;5032265;28;20024;-64
2022/05/25 07:14:33;;;;;;;6.80;3.78;;;;;;;37.65;31.83;91017.31;5014874;28;20031;-64
2022/05/25 07:17:02;;;;;;;4.63;3.33;;;;;;;36.98;33.11;91033.34;5032270;28;20095;-64
2022/05/25 07:19:28;;;;;;;5.30;2.88;;;;;;;38.10;32.06;91032.78;5032190;28;20029;-64
2022/05/25 07:21:53;;;;;;;5.65;3.55;;;;;;;37.56;32.42;91032.03;5032091;28;20476;-64
2022/05/25 07:24:19;;;;;;;5.63;3.42;;;;;;;35.28;35.04;91028.78;5032274;28;20029;-63
2022/05/25 07:26:44;;;;;;;8.20;3.53;;;;;;;37.98;32.73;91028.28;5032009;28;20469;-64
2022/05/25 07:29:10;;;;;;;9.88;4.18;;;;;;;37.50;31.97;91025.59;5032050;28;20057;-64
2022/05/25 07:31:47;;;;;;;7.22;3.20;;;;;;;38.33;31.65;91031.94;5031890;28;20029;-63
2022/05/25 07:34:15;;;;;;;8.70;5.25;;;;;;;36.83;33.17;91035.28;5032133;28;20036;-62
2022/05/25 07:36:51;;;;;;;6.15;3.35;;;;;;;38.47;31.17;91035.19;5130521;22;20149;-79
2022/05/25 07:39:19;;;;;;;9.35;3.05;;;;;;;39.12;31.03;91035.94;5030291;28;20506;-66
2022/05/25 07:41:52;;;;;;;8.77;4.13;;;;;;;38.17;31.84;91023.28;5051673;28;20029;-67
2022/05/25 07:44:24;;;;;;;6.70;3.70;;;;;;;40.42;30.23;91039.78;5051521;28;20504;-68
2022/05/25 07:46:50;;;;;;;6.75;4.43;;;;;;;41.14;29.54;91033.97;5051395;28;20033;-68
2022/05/25 07:49:16;;;;;;;7.18;3.40;;;;;;;39.59;31.17;91034.03;5051452;28;20036;-71
2022/05/25 07:51:42;;;;;;;7.30;4.63;;;;;;;40.68;30.31;91037.69;5051458;28;20521;-70
2022/05/25 07:54:09;;;;;;;11.43;7.75;;;;;;;40.00;30.26;91032.75;5033137;28;20391;-71
2022/05/25 07:56:36;;;;;;;6.30;3.63;;;;;;;40.00;29.77;91043.13;5050642;28;20104;-71
2022/05/25 07:59:05;;;;;;;5.57;3.30;;;;;;;39.23;30.86;91041.66;5051361;28;20031;-72
2022/05/25 08:07:07;;;;;;;8.90;4.28;;;;;;;40.17;29.36;91044.06;5051377;28;20052;-69
2022/05/25 08:09:33;;;;;;;5.85;3.10;;;;;;;38.50;31.36;91050.91;5050775;28;20025;-68
2022/05/25 08:12:01;;;;;;;4.78;3.70;;;;;;;36.75;32.77;91043.13;5051188;28;20481;-69
2022/05/25 08:14:28;;;;;;;4.57;3.38;;;;;;;38.30;30.64;91048.81;5051027;28;20485;-68
2022/05/25 08:16:54;;;;;;;6.28;3.83;;;;;;;38.74;31.57;91056.38;5050881;28;20031;-69
2022/05/25 08:19:20;;;;;;;5.20;3.20;;;;;;;37.97;31.68;91054.53;5050895;28;20116;-69
2022/05/25 08:21:47;;;;;;;4.10;2.80;;;;;;;38.31;31.60;91059.44;5051324;28;20486;-68
2022/05/25 08:24:13;;;;;;;4.88;3.22;;;;;;;36.46;31.75;91060.38;5050579;28;20064;-68
2022/05/25 08:26:39;;;;;;;5.22;3.28;;;;;;;37.13;32.48;91055.59;5050826;28;20104;-69
2022/05/25 08:29:04;;;;;;;4.40;2.33;;;;;;;37.41;29.08;91070.84;5050917;28;20120;-68
2022/05/25 08:31:30;;;;;;;5.38;2.35;;;;;;;36.47;30.16;91052.81;5050880;28;20055;-69
2022/05/25 08:33:55;;;;;;;4.40;2.20;;;;;;;37.16;28.12;91060.19;5050847;28;20013;-69
2022/05/25 08:36:21;;;;;;;6.28;2.10;;;;;;;35.90;30.32;91064.47;5050893;28;20429;-68
2022/05/25 08:38:46;;;;;;;3.92;2.63;;;;;;;35.21;29.54;91065.03;5050032;28;20422;-68
2022/05/25 08:41:12;;;;;;;5.60;3.10;;;;;;;35.81;30.52;91061.66;5050823;28;20159;-69
2022/05/25 08:43:49;;;;;;;3.10;2.20;;;;;;;35.40;30.14;91074.16;5050732;28;20526;-69
2022/05/25 08:46:21;;;;;;;2.97;2.67;;;;;;;35.62;28.77;91071.22;5050719;28;20347;-69
2022/05/25 08:48:46;;;;;;;4.55;2.50;;;;;;;36.56;28.73;91072.16;5050521;28;20479;-68
2022/05/25 08:51:19;;;;;;;5.95;2.40;;;;;;;35.60;28.08;91070.91;5050562;28;20078;-68
2022/05/25 08:53:47;;;;;;;4.45;2.13;;;;;;;34.89;28.42;91071.13;5050124;28;20029;-68
2022/05/25 08:56:28;;;;;;;8.55;3.20;;;;;;;34.71;28.76;91066.25;5050523;28;20032;-69
2022/05/25 08:59:01;;;;;;;11.35;3.13;;;;;;;36.30;28.82;91063.47;5050675;28;20418;-69
2022/05/25 09:01:32;;;;;;;;;;;;;;;34.67;28.96;91066.41;5050710;28;20029;-68
2022/05/25 09:04:00;;;;;;;10.60;1.92;;;;;;;33.97;30.47;91065.16;5050454;28;20370;-73
2022/05/25 09:06:33;;;;;;;6.63;2.20;;;;;;;35.76;29.41;91059.53;5050419;28;20024;-69
2022/05/25 09:09:13;;;;;;;5.35;2.15;;;;;;;35.76;27.38;91065.06;5050730;28;20530;-68
2022/05/25 09:11:45;;;;;;;5.45;2.90;;;;;;;35.76;27.34;91056.00;5054223;28;20036;-68
2022/05/25 09:14:27;;;;;;;8.73;2.38;;;;;;;34.70;27.81;91062.72;5054214;28;20560;-69
2022/05/25 09:16:56;;;;;;;7.32;2.33;;;;;;;34.91;27.97;91068.66;5054051;28;20033;-72
2022/05/25 09:19:29;;;;;;;4.57;1.85;;;;;;;34.53;28.34;91056.69;5054153;28;20053;-73
2022/05/25 09:22:00;;;;;;;9.25;2.92;;;;;;;35.36;28.83;91054.94;5054219;28;20033;-72
2022/05/25 09:24:28;;;;;;;5.82;2.20;;;;;;;36.10;28.10;91072.28;5053653;28;20566;-71
2022/05/25 09:26:54;;;;;;;6.32;2.40;;;;;;;35.77;27.73;91068.59;5054149;28;20122;-71
2022/05/25 09:29:22;;;;;;;10.63;3.13;;;;;;;33.81;29.11;91068.84;5053629;28;20045;-73
2022/05/25 09:31:55;;;;;;;12.38;2.83;;;;;;;34.78;28.59;91072.28;5054131;28;20147;-72
2022/05/25 09:34:47;;;;;;;2.85;1.83;;;;;;;35.17;29.20;91080.22;5054063;28;20059;-72
2022/05/25 09:37:42;;;;;;;6.80;2.75;;;;;;;36.18;28.76;91078.28;5053924;28;20040;-72
2022/05/25 09:40:23;;;;;;;3.75;1.90;;;;;;;35.69;27.75;91066.16;5017807;28;20037;-71
2022/05/25 09:42:51;;;;;;;3.65;2.30;;;;;;;35.33;28.82;91072.41;5053826;28;20091;-72
2022/05/25 09:45:17;;;;;;;6.90;3.20;;;;;;;35.08;28.43;91062.41;5053743;28;20459;-74
2022/05/25 09:47:45;;;;;;;5.00;2.22;;;;;;;34.77;29.40;91070.75;5053719;28;20040;-69
2022/05/25 09:50:25;;;;;;;4.47;2.20;;;;;;;36.38;28.88;91061.91;5053757;28;20036;-69
2022/05/25 09:52:53;;;;;;;6.28;2.38;;;;;;;35.56;29.03;91060.00;5052228;28;20024;-72
2022/05/25 09:55:45;;;;;;;4.32;2.22;;;;;;;36.73;27.19;91072.56;5053775;28;20033;-72
2022/05/25 09:58:36;;;;;;;21.63;18.25;;;;;;;36.04;29.17;91065.06;5053521;28;20025;-71
2022/05/25 10:01:16;;;;;;;2.95;2.00;;;;;;;36.14;27.14;91072.13;5045262;28;20029;-72
2022/05/25 10:03:44;;;;;;;4.88;2.10;;;;;;;35.79;27.46;91069.66;5053458;28;20124;-72
2022/05/25 10:06:16;;;;;;;5.22;1.80;;;;;;;35.04;28.94;91072.84;5053256;28;20021;-72
2022/05/25 10:08:43;;;;;;;3.63;2.08;;;;;;;35.22;29.15;91076.88;5053304;28;20025;-72
2022/05/25 10:11:13;;;;;;;8.85;2.95;;;;;;;34.23;29.89;91069.25;5053340;28;20032;-72
2022/05/25 10:13:41;;;;;;;10.25;2.90;;;;;;;35.11;30.46;91067.00;5053366;28;20036;-72
2022/05/25 10:16:39;;;;;;;7.38;3.00;;;;;;;34.79;30.40;91068.28;5052794;28;20120;-72
2022/05/25 10:19:09;;;;;;;3.80;2.30;;;;;;;34.89;29.41;91073.91;5009125;28;20037;-72
2022/05/25 10:21:36;;;;;;;5.80;2.42;;;;;;;34.38;29.45;91071.50;5052761;28;20029;-72
2022/05/25 10:24:14;;;;;;;6.25;2.33;;;;;;;34.23;31.15;91069.25;5053264;28;20124;-72
2022/05/25 10:26:47;;;;;;;5.22;2.47;;;;;;;34.25;30.42;91068.84;5052945;28;20027;-73
2022/05/25 10:38:26;;;;;;;4.63;1.85;;;;;;;35.42;29.39;91063.38;5052939;28;20114;-73
2022/05/25 10:40:52;;;;;;;4.05;2.20;;;;;;;36.34;28.90;91071.66;5052885;28;20021;-73
2022/05/25 10:43:28;;;;;;;4.95;2.33;;;;;;;35.60;29.11;91068.91;5052822;28;20071;-73
2022/05/25 10:45:56;;;;;;;4.20;1.80;;;;;;;34.72;28.90;91065.84;5052773;28;20028;-73
2022/05/25 10:48:44;;;;;;;6.10;2.08;;;;;;;34.23;30.11;91060.97;5052522;28;20079;-74
2022/05/25 10:51:15;;;;;;;2.92;1.83;;;;;;;34.98;28.45;91062.84;5052662;28;20059;-70
2022/05/25 10:54:44;;;;;;;5.30;1.80;;;;;;;33.93;28.89;91064.53;5052552;28;20413;-72
2022/05/25 10:56:59;;;;;;;6.00;1.95;;;;;;;34.86;30.21;91061.72;5052436;28;20127;-72
2022/05/25 10:59:52;;;;;;;5.03;2.38;;;;;;;36.80;26.56;91050.09;5051876;28;20428;-72
2022/05/25 11:02:36;;;;;;;3.83;1.83;;;;;;;35.95;27.39;91049.22;5051921;28;20051;-72
2022/05/25 11:05:16;;;;;;;4.35;2.42;;;;;;;34.68;29.30;91045.84;5052376;28;20028;-73
2022/05/25 11:07:43;;;;;;;6.22;2.30;;;;;;;34.30;30.83;91048.13;5051795;28;20032;-73
2022/05/25 11:10:46;;;;;;;7.68;2.38;;;;;;;35.29;28.58;91043.38;5052070;28;20036;-73
2022/05/25 11:13:28;;;;;;;7.40;2.42;;;;;;;35.45;27.71;91048.63;5052239;28;20029;-73
2022/05/25 11:16:20;;;;;;;4.55;2.28;;;;;;;35.95;26.27;91055.53;5052341;28;20033;-73
2022/05/25 11:19:03;;;;;;;4.43;2.25;;;;;;;35.77;25.83;91049.22;5052208;28;20525;-73
2022/05/25 11:21:55;;;;;;;8.15;2.08;;;;;;;36.35;25.24;91040.69;5052165;28;20033;-73
2022/05/25 11:24:49;;;;;;;4.95;2.13;;;;;;;35.72;26.25;91045.09;5052177;28;20082;-74
2022/05/25 11:27:45;;;;;;;7.55;2.60;;;;;;;36.50;26.85;91044.34;5051828;28;20525;-73
2022/05/25 11:30:45;;;;;;;4.82;1.95;;;;;;;35.19;25.47;91037.06;5052001;28;20029;-73
2022/05/25 11:33:21;;;;;;;5.15;1.90;;;;;;;34.28;26.74;91039.53;5051347;28;20493;-73
2022/05/25 11:36:15;;;;;;;4.25;1.95;;;;;;;35.07;25.95;91037.97;5051849;28;20100;-74
2022/05/25 11:38:55;;;;;;;4.35;2.05;;;;;;;36.01;25.55;91025.22;5051656;28;20051;-73
2022/05/25 11:41:45;;;;;;;3.78;2.10;;;;;;;35.47;26.04;91031.56;5051829;28;20118;-74
2022/05/25 11:45:03;;;;;;;3.60;2.08;;;;;;;35.14;26.43;91032.13;5051783;28;20390;-73
2022/05/25 11:47:37;;;;;;;6.45;2.03;;;;;;;35.77;25.15;91021.53;5038975;28;20537;-73
2022/05/25 11:50:28;;;;;;;3.28;1.77;;;;;;;37.01;25.13;91024.06;5051590;28;20457;-69
2022/05/25 11:53:04;;;;;;;7.85;2.47;;;;;;;35.11;26.01;91016.47;5051548;28;20029;-69
2022/05/25 11:55:42;;;;;;;5.20;2.20;;;;;;;34.95;27.10;91023.06;5051535;28;20029;-68
2022/05/25 11:58:15;;;;;;;3.55;1.77;;;;;;;34.64;26.95;91028.63;5051476;28;20028;-68
2022/05/25 12:00:58;;;;;;;6.03;2.17;;;;;;;35.51;26.58;91021.91;5051434;28;20032;-69
2022/05/25 12:03:29;;;;;;;6.63;2.05;;;;;;;35.57;26.00;91022.81;5051442;28;20040;-69
2022/05/25 12:06:32;;;;;;;3.97;2.40;;;;;;;35.24;27.68;91014.34;5051392;28;20472;-69
2022/05/25 12:09:35;;;;;;;9.75;2.22;;;;;;;35.66;25.02;91022.00;5051287;28;20033;-69
2022/05/25 12:12:09;;;;;;;5.70;1.90;;;;;;;35.63;26.48;91020.94;5051344;28;20029;-69
2022/05/25 12:14:49;;;;;;;3.95;2.10;;;;;;;34.54;27.78;91021.53;5051509;28;20059;-69
2022/05/25 12:17:38;;;;;;;6.10;2.30;;;;;;;34.48;29.34;91021.38;5051154;28;20025;-69
2022/05/25 12:20:11;;;;;;;4.57;2.08;;;;;;;34.98;27.94;91010.31;5051287;28;20024;-69
2022/05/25 12:22:45;;;;;;;3.80;2.20;;;;;;;35.49;27.60;91024.34;5051165;28;20467;-70